Latest Weather Observations for Cape Otway

IDV60801

Issued at 12:35 pm EST Thursday 28 August 2014 (issued every 30 minutes, with the page automatically refreshed every 10 minutes)

About weather observations | Map of weather stations | Latest weather observations for VIC | Other Formats
Station Details ID: 090015 Name: CAPE OTWAY LIGHTHOUSE Lat: -38.86 Lon: 143.51 Height: 82.0 m
Data from the previous 72 hours. | See also: Recent months at Cape Otway
Date/Time
EST
Temp
°C
App
Temp
°C
Dew
Point
Rel
Hum
%
Delta-T
°C
Wind Press
QNH
hPa
Press
MSL
hPa
Rain
since 9 am
mm
Dir
 
Spd
km/h
Gust
km/h
Spd
kts
Gust
kts
28/12:30pm 13.5 13.7 10.6 82 1.5 CALM 0 0 0 0 1028.1 - 0.0
28/12:00pm 13.7 13.7 11.2 85 1.3 - 2 7 1 4 1028.6 - 0.0
28/11:30am 13.8 13.8 11.1 84 1.4 - 2 6 1 3 1028.9 - 0.0
28/11:00am 12.6 11.7 10.7 88 1.0 - 6 7 3 4 1029.1 - 0.0
28/10:30am 12.5 11.6 10.6 88 1.0 - 6 7 3 4 1029.3 - 0.0
28/10:00am 12.3 11.8 10.6 89 0.9 - 4 7 2 4 1029.5 - 0.0
28/09:30am 12.3 12.6 10.8 90 0.8 CALM 0 7 0 4 1029.4 - 0.0
28/09:00am 11.9 12.1 10.5 91 0.7 CALM 0 0 0 0 1029.3 1029.4 0.0
28/08:30am 11.3 10.9 9.7 90 0.8 - 2 7 1 4 1029.2 - 0.0
28/08:00am 9.0 7.1 7.7 91 0.6 - 7 9 4 5 1029.1 - 0.0
28/07:30am 7.3 4.7 6.2 93 0.5 - 9 11 5 6 1029.0 - 0.0
28/07:00am 6.8 5.9 5.9 94 0.4 CALM 0 0 0 0 1028.7 - 0.0
28/06:30am 6.6 4.5 5.9 95 0.3 - 6 7 3 4 1028.6 - 0.0
28/06:00am 7.0 4.8 6.3 95 0.3 - 7 9 4 5 1028.4 1028.5 0.0
28/05:30am 8.0 5.6 7.1 94 0.4 - 9 11 5 6 1028.0 - 0.0
28/05:00am 8.2 5.7 6.7 90 0.7 - 9 11 5 6 1027.8 - 0.0
28/04:30am 6.2 3.8 5.3 94 0.4 - 7 7 4 4 1027.7 - 0.0
28/04:00am 6.1 3.7 4.2 88 0.8 - 6 7 3 4 1027.6 - 0.0
28/03:30am 6.2 3.7 4.6 89 0.7 - 7 9 4 5 1027.5 - 0.0
28/03:00am 6.3 4.0 4.9 91 0.6 - 6 7 3 4 1027.7 1027.9 0.0
28/02:30am 7.1 4.1 6.0 93 0.5 - 11 13 6 7 1027.9 - 0.0
28/02:00am 7.8 4.6 6.7 93 0.5 - 13 15 7 8 1028.1 - 0.0
28/01:30am 7.4 4.2 6.7 95 0.3 - 13 17 7 9 1028.3 - 0.0
28/01:00am 7.2 6.4 6.3 94 0.4 CALM 0 6 0 3 1028.6 - 0.0
28/12:30am 7.0 5.4 6.3 95 0.3 - 4 7 2 4 1028.8 - 0.0
28/12:00am 7.8 7.0 6.7 93 0.5 CALM 0 0 0 0 1028.8 1028.9 0.0
 
Date/Time
EST
Temp
°C
App
Temp
°C
Dew
Point
Rel
Hum
%
Delta-T
°C
Wind Press
QNH
hPa
Press
MSL
hPa
Rain
since 9 am
mm
Dir
 
Spd
km/h
Gust
km/h
Spd
kts
Gust
kts
27/11:30pm 6.2 5.2 5.7 97 0.2 CALM 0 0 0 0 1029.0 - 0.0
27/11:00pm 6.7 5.7 5.8 94 0.4 CALM 0 0 0 0 1028.9 - 0.0
27/10:30pm 7.2 6.4 6.5 95 0.3 CALM 0 0 0 0 1028.8 - 0.0
27/10:00pm 7.5 6.8 6.8 95 0.3 CALM 0 0 0 0 1028.8 - 0.0
27/09:30pm 7.5 6.7 6.6 94 0.4 CALM 0 0 0 0 1028.8 - 0.0
27/09:00pm 7.4 6.6 6.5 94 0.4 CALM 0 0 0 0 1028.8 1028.9 0.0
27/08:30pm 7.3 6.5 6.4 94 0.4 CALM 0 0 0 0 1028.9 - 0.0
27/08:00pm 7.8 7.2 7.2 96 0.3 CALM 0 0 0 0 1028.7 - 0.0
27/07:30pm 8.4 7.8 7.3 93 0.5 CALM 0 0 0 0 1028.5 - 0.0
27/07:00pm 8.5 7.2 7.7 95 0.4 - 4 6 2 3 1028.4 - 0.0
27/06:30pm 9.4 9.0 8.4 93 0.5 CALM 0 0 0 0 1028.0 - 0.0
27/06:00pm 10.5 10.4 9.3 92 0.6 CALM 0 0 0 0 1027.8 1028.0 0.0
27/05:30pm 11.5 11.3 10.3 92 0.6 - 2 7 1 4 1027.5 - 0.0
27/05:00pm 12.1 11.2 10.7 91 0.7 - 6 9 3 5 1027.2 - 0.0
27/04:30pm 12.1 10.6 10.7 91 0.7 - 9 13 5 7 1027.1 - 0.0
27/04:00pm 12.0 10.5 10.6 91 0.7 - 9 13 5 7 1027.2 - 0.0
27/03:30pm 12.2 10.6 10.3 88 1.0 - 9 15 5 8 1027.1 - 0.0
27/03:00pm 11.9 10.3 10.3 90 0.8 - 9 13 5 7 1027.2 1027.4 0.0
27/02:30pm 12.0 11.0 10.4 90 0.8 - 6 9 3 5 1027.2 - 0.0
27/02:00pm 12.4 11.5 10.5 88 1.0 - 6 9 3 5 1027.5 - 0.0
27/01:30pm 11.7 10.1 10.3 91 0.7 - 9 13 5 7 1027.7 - 0.0
27/01:00pm 12.1 11.2 10.5 90 0.8 - 6 7 3 4 1027.8 - 0.0
27/12:30pm 11.7 10.3 10.9 95 0.4 - 9 15 5 8 1028.1 - 0.0
27/12:00pm 12.0 10.9 10.6 91 0.7 - 7 11 4 6 1028.5 1028.6 0.0
27/11:30am 11.8 10.4 10.8 94 0.5 - 9 13 5 7 1028.5 - 0.0
27/11:00am 11.6 10.1 10.6 94 0.5 - 9 11 5 6 1028.3 - 0.0
27/10:30am 11.2 10.1 10.8 97 0.2 - 7 11 4 6 1028.4 - 0.0
27/10:00am 11.0 9.5 10.6 97 0.2 - 9 13 5 7 1028.5 - 0.0
27/09:30am 11.1 10.5 10.5 96 0.3 - 4 9 2 5 1028.1 - 0.0
27/09:00am 10.7 10.5 10.3 97 0.2 - 2 9 1 5 1028.1 1028.3 0.4
27/08:30am 10.7 9.4 10.1 96 0.3 - 7 9 4 5 1027.9 - 0.4
27/08:00am 8.3 7.8 7.9 97 0.2 CALM 0 0 0 0 1027.7 - 0.4
27/07:30am 7.5 6.7 6.6 94 0.4 CALM 0 0 0 0 1027.4 - 0.4
27/07:00am 6.3 5.1 6.3 100 0.0 - 2 6 1 3 1027.1 - 0.4
27/06:30am 7.1 6.3 6.4 95 0.3 CALM 0 0 0 0 1026.7 - 0.4
27/06:00am 7.3 6.5 6.6 95 0.3 CALM 0 0 0 0 1026.4 1026.6 0.4
27/05:30am 7.7 7.1 7.3 97 0.2 CALM 0 0 0 0 1026.2 - 0.4
27/05:00am 7.3 5.9 7.1 99 0.1 - 4 7 2 4 1026.1 - 0.4
27/04:30am 7.9 6.9 7.5 97 0.2 - 2 6 1 3 1026.0 - 0.0
27/04:00am 8.1 5.9 7.7 97 0.2 - 9 11 5 6 1026.1 - 0.0
27/03:30am 9.1 7.5 8.9 99 0.1 - 7 9 4 5 1026.1 - 0.0
27/03:00am 10.3 7.8 9.7 96 0.3 - 13 17 7 9 1026.3 1026.5 0.0
27/02:30am 10.1 7.5 9.3 95 0.4 - 13 15 7 8 1026.4 - 0.0
27/02:00am 9.8 6.7 9.0 95 0.4 - 15 19 8 10 1026.4 - 0.0
27/01:30am 9.2 6.8 8.8 97 0.2 - 11 13 6 7 1026.3 - 0.0
27/01:00am 10.3 8.6 9.9 97 0.2 - 9 9 5 5 1026.4 - 0.0
27/12:30am 11.1 9.6 10.7 97 0.2 - 9 11 5 6 1026.2 - 0.0
27/12:00am 11.6 9.1 11.2 97 0.2 - 15 17 8 9 1026.3 1026.5 0.0
 
Date/Time
EST
Temp
°C
App
Temp
°C
Dew
Point
Rel
Hum
%
Delta-T
°C
Wind Press
QNH
hPa
Press
MSL
hPa
Rain
since 9 am
mm
Dir
 
Spd
km/h
Gust
km/h
Spd
kts
Gust
kts
26/11:30pm 11.5 8.6 10.9 96 0.3 - 17 19 9 10 1026.3 - 0.0
26/11:00pm 11.2 8.9 10.4 95 0.4 - 13 13 7 7 1026.5 - 0.0
26/10:30pm 10.9 8.8 9.7 92 0.6 - 11 13 6 7 1026.6 - 0.0
26/10:00pm 11.2 9.6 10.2 94 0.5 - 9 11 5 6 1026.7 - 0.0
26/09:30pm 11.8 10.0 10.8 94 0.5 - 11 13 6 7 1026.7 - 0.0
26/09:00pm 12.5 9.3 11.4 93 0.6 - 19 24 10 13 1026.9 1027.1 0.0
26/08:30pm 12.7 9.5 11.4 92 0.7 - 19 26 10 14 1026.7 - 0.0
26/08:00pm 12.9 10.6 11.6 92 0.7 - 15 24 8 13 1026.9 - 0.0
26/07:30pm 12.8 11.2 11.5 92 0.7 - 11 19 6 10 1027.0 - 0.0
26/07:00pm 12.7 10.7 11.4 92 0.7 - 13 20 7 11 1026.9 - 0.0
26/06:30pm 12.8 9.4 11.3 91 0.8 - 20 28 11 15 1026.5 - 0.0
26/06:00pm 12.8 9.6 11.1 89 0.9 - 19 32 10 17 1026.2 1026.4 0.0
26/05:30pm 13.0 9.2 11.3 89 0.9 - 22 35 12 19 1025.9 - 0.0
26/05:00pm 13.0 9.9 11.5 91 0.8 - 19 28 10 15 1026.1 - 0.0
26/04:30pm 13.3 10.1 11.4 88 1.0 - 19 32 10 17 1026.1 - 0.0
26/04:00pm 13.4 10.0 11.3 87 1.1 - 20 33 11 18 1026.1 - 0.0
26/03:30pm 13.6 10.2 11.3 86 1.2 - 20 30 11 16 1026.2 - 0.0
26/03:00pm 13.7 10.5 11.2 85 1.3 - 19 30 10 16 1026.4 1026.6 0.0
26/02:30pm 13.9 10.8 11.5 85 1.3 - 19 28 10 15 1026.8 - 0.0
26/02:00pm 13.4 10.5 11.1 86 1.2 - 17 28 9 15 1027.0 - 0.0
26/01:30pm 13.7 11.6 11.2 85 1.3 - 13 24 7 13 1027.3 - 0.0
26/01:00pm 14.1 11.8 11.9 86 1.2 - 15 24 8 13 1027.8 - 0.0
26/12:30pm 13.9 10.6 11.5 85 1.3 - 20 30 11 16 1028.1 - 0.0
26/12:00pm 13.7 9.6 11.4 86 1.2 - 24 30 13 16 1028.5 1028.6 0.0
26/11:30am 13.6 9.6 11.7 88 1.0 - 24 30 13 16 1028.8 - 0.0
26/11:00am 13.3 9.2 11.4 88 1.0 - 24 30 13 16 1029.1 - 0.0
26/10:30am 13.5 9.4 11.6 88 1.0 - 24 30 13 16 1029.2 - 0.0
26/10:00am 13.1 9.0 11.4 89 0.9 - 24 30 13 16 1029.4 - 0.0
26/09:30am 12.8 9.4 11.3 91 0.8 - 20 26 11 14 1029.6 - 0.0
26/09:00am 12.8 9.4 11.1 89 0.9 - 20 26 11 14 1029.5 1029.6 0.0
26/08:30am 12.7 9.5 11.2 91 0.8 - 19 28 10 15 1029.4 - 0.0
26/08:00am 12.5 9.5 10.8 89 0.9 - 17 24 9 13 1029.2 - 0.0
26/07:30am 12.4 10.1 10.5 88 1.0 - 13 20 7 11 1029.2 - 0.0
26/07:00am 12.2 9.8 10.0 86 1.1 - 13 22 7 12 1028.9 - 0.0
26/06:30am 12.2 9.0 10.0 86 1.1 - 17 24 9 13 1028.6 - 0.0
26/06:00am 12.1 9.2 9.7 85 1.2 - 15 20 8 11 1028.4 1028.5 0.0
26/05:30am 12.2 9.7 9.6 84 1.3 - 13 20 7 11 1028.3 - 0.0
26/05:00am 12.0 9.8 9.2 83 1.4 - 11 19 6 10 1028.4 - 0.0
26/04:30am 12.0 9.8 9.2 83 1.4 - 11 20 6 11 1028.5 - 0.0
26/04:00am 12.1 8.5 9.9 86 1.1 - 19 30 10 16 1028.5 - 0.0
26/03:30am 12.1 9.7 9.9 86 1.1 - 13 20 7 11 1028.4 - 0.0
26/03:00am 12.0 9.6 10.2 89 0.9 - 13 19 7 10 1028.8 1028.9 0.0
26/02:30am 11.9 10.2 9.7 86 1.1 - 9 15 5 8 1029.0 - 0.0
26/02:00am 11.8 9.6 9.4 85 1.2 - 11 19 6 10 1029.2 - 0.0
26/01:30am 11.7 9.4 9.1 84 1.3 - 11 17 6 9 1029.2 - 0.0
26/01:00am 11.8 9.1 9.0 83 1.4 - 13 24 7 13 1029.5 - 0.0
26/12:30am 12.0 9.2 8.6 80 1.7 - 13 28 7 15 1029.6 - 0.0
26/12:00am 11.9 8.8 8.7 81 1.6 - 15 24 8 13 1029.7 1029.8 0.0
 
Date/Time
EST
Temp
°C
App
Temp
°C
Dew
Point
Rel
Hum
%
Delta-T
°C
Wind Press
QNH
hPa
Press
MSL
hPa
Rain
since 9 am
mm
Dir
 
Spd
km/h
Gust
km/h
Spd
kts
Gust
kts
25/11:30pm 11.7 8.9 8.7 82 1.5 - 13 20 7 11 1029.8 - 0.0
25/11:00pm 11.6 8.8 8.6 82 1.5 - 13 20 7 11 1030.0 - 0.0
25/10:30pm 11.3 8.5 8.7 84 1.3 - 13 24 7 13 1030.0 - 0.0
25/10:00pm 11.3 8.2 8.7 84 1.3 - 15 24 8 13 1030.1 - 0.0
25/09:30pm 11.4 7.6 9.0 85 1.2 - 19 24 10 13 1029.9 - 0.0
25/09:00pm 11.5 8.0 8.9 84 1.3 - 17 24 9 13 1030.1 1030.2 0.0
25/08:30pm 11.6 7.8 9.0 84 1.3 - 19 24 10 13 1030.1 - 0.0
25/08:00pm 11.5 8.0 8.9 84 1.3 - 17 22 9 12 1029.9 - 0.0
25/07:30pm 11.4 8.3 9.0 85 1.2 - 15 22 8 12 1029.8 - 0.0
25/07:00pm 11.5 8.4 8.9 84 1.3 - 15 20 8 11 1029.9 - 0.0
25/06:30pm 11.7 10.1 8.9 83 1.4 - 7 15 4 8 1029.7 - 0.0
25/06:00pm 11.8 8.6 8.6 81 1.6 - 15 20 8 11 1029.4 1029.5 0.0
25/05:30pm 12.0 9.3 8.8 81 1.6 - 13 20 7 11 1029.3 - 0.0
25/05:00pm 12.3 9.2 8.7 79 1.8 - 15 20 8 11 1029.0 - 0.0
25/04:30pm 12.7 10.1 9.5 81 1.6 - 13 22 7 12 1028.9 - 0.0
25/04:00pm 12.6 8.3 9.2 80 1.7 - 22 28 12 15 1028.6 - 0.0
25/03:30pm 12.9 8.1 8.9 76 2.0 - 24 30 13 16 1028.5 - 0.0
25/03:00pm 12.7 7.5 8.9 78 1.9 - 26 33 14 18 1028.5 1028.6 0.0
25/02:30pm 12.9 7.4 9.1 78 1.9 - 28 33 15 18 1028.4 - 0.0
25/02:00pm 12.8 9.1 10.1 84 1.4 - 20 30 11 16 1028.4 - 0.0
25/01:30pm 12.3 6.8 10.4 88 1.0 - 30 44 16 24 1028.1 - 0.0
25/01:28pm 12.7 7.1 10.2 85 1.3 - 30 43 16 23 1028.1 - 0.0
25/01:27pm 12.7 7.1 10.2 85 1.3 - 30 43 16 23 1028.1 - 0.0
25/01:00pm 12.7 10.3 10.0 84 1.4 - 13 20 7 11 1028.5 - 0.0

Other Formats:

Comma delimited format used in spreadsheet applications
http://www.bom.gov.au/fwo/IDV60801/IDV60801.94842.axf

JavaScript Object Notation format (JSON) in row-major order
http://www.bom.gov.au/fwo/IDV60801/IDV60801.94842.json